createdAt,value
2018-01-16T00:00:04.024Z,0
2018-01-16T00:00:44.552Z,0
2018-01-16T00:01:25.085Z,0
2018-01-16T00:02:06.517Z,0
2018-01-16T00:02:47.030Z,0
2018-01-16T00:03:27.565Z,0
2018-01-16T00:04:08.080Z,0
2018-01-16T00:04:48.678Z,0
2018-01-16T00:05:29.205Z,0
2018-01-16T00:06:09.783Z,0
2018-01-16T00:06:50.340Z,0
2018-01-16T00:07:30.878Z,0
2018-01-16T00:08:11.419Z,0
2018-01-16T00:08:51.991Z,0
2018-01-16T00:09:32.562Z,0
2018-01-16T00:10:13.060Z,0
2018-01-16T00:10:53.675Z,0
2018-01-16T00:11:34.206Z,0
2018-01-16T00:12:14.803Z,0
2018-01-16T00:12:55.289Z,0
2018-01-16T00:13:35.844Z,0
2018-01-16T00:14:16.389Z,0
2018-01-16T00:14:56.933Z,0
2018-01-16T00:15:37.476Z,0
2018-01-16T00:16:18.019Z,0
2018-01-16T00:16:58.530Z,0
2018-01-16T00:17:39.089Z,0
2018-01-16T00:18:19.611Z,0
2018-01-16T00:19:00.097Z,0
2018-01-16T00:19:40.653Z,0
2018-01-16T00:20:21.205Z,0
2018-01-16T00:21:01.761Z,0
2018-01-16T00:21:42.286Z,0
2018-01-16T00:22:22.802Z,0
2018-01-16T00:23:03.400Z,0
2018-01-16T00:23:43.892Z,0
2018-01-16T00:24:24.447Z,0
2018-01-16T00:25:04.999Z,0
2018-01-16T00:25:45.566Z,0
2018-01-16T00:26:26.080Z,0
2018-01-16T00:27:06.613Z,0
2018-01-16T00:27:47.211Z,0
2018-01-16T00:28:27.649Z,0
2018-01-16T00:29:08.255Z,0
2018-01-16T00:29:48.755Z,0
2018-01-16T00:30:29.264Z,0
2018-01-16T00:31:09.831Z,0
2018-01-16T00:31:50.415Z,0
2018-01-16T00:32:30.936Z,0
2018-01-16T00:33:11.458Z,0
2018-01-16T00:33:51.996Z,0
2018-01-16T00:34:32.584Z,0
2018-01-16T00:35:13.140Z,0
2018-01-16T00:35:53.683Z,0
2018-01-16T00:36:34.259Z,0
2018-01-16T00:37:14.796Z,0
2018-01-16T00:37:55.338Z,0
2018-01-16T00:38:35.956Z,0
2018-01-16T00:39:16.460Z,0
2018-01-16T00:39:57.047Z,0
2018-01-16T00:40:37.624Z,0
2018-01-16T00:41:18.155Z,0
2018-01-16T00:41:58.744Z,0
2018-01-16T00:42:39.291Z,0
2018-01-16T00:43:19.811Z,0
2018-01-16T00:44:00.323Z,0
2018-01-16T00:44:40.865Z,0
2018-01-16T00:45:21.405Z,0
2018-01-16T00:46:01.932Z,0
2018-01-16T00:46:42.560Z,0
2018-01-16T00:47:23.101Z,0
2018-01-16T00:48:03.602Z,0
2018-01-16T00:48:44.135Z,0
2018-01-16T00:49:24.613Z,0
2018-01-16T00:50:05.195Z,0
2018-01-16T00:50:45.715Z,0
2018-01-16T00:51:26.273Z,0
2018-01-16T00:52:06.809Z,0
2018-01-16T00:52:47.349Z,0
2018-01-16T00:53:27.827Z,0
2018-01-16T00:54:08.343Z,0
2018-01-16T00:54:48.889Z,0
2018-01-16T00:55:29.428Z,0
2018-01-16T00:56:09.988Z,0
2018-01-16T00:56:50.480Z,0
2018-01-16T00:57:31.041Z,0
2018-01-16T00:58:11.575Z,0
2018-01-16T00:58:52.162Z,0
2018-01-16T00:59:32.718Z,0
2018-01-16T01:00:13.256Z,0
2018-01-16T01:00:53.837Z,0
2018-01-16T01:01:34.399Z,0
2018-01-16T01:02:14.899Z,0
2018-01-16T01:02:55.426Z,0
2018-01-16T01:03:35.953Z,0
2018-01-16T01:04:16.492Z,0
2018-01-16T01:04:57.004Z,0
2018-01-16T01:05:37.554Z,0
2018-01-16T01:06:18.136Z,0
2018-01-16T01:06:58.615Z,0
2018-01-16T01:07:39.198Z,0
2018-01-16T01:08:19.714Z,0
2018-01-16T01:09:00.220Z,0
2018-01-16T01:09:40.724Z,0
2018-01-16T01:10:21.277Z,0
2018-01-16T01:11:01.818Z,0
2018-01-16T01:11:42.354Z,0
2018-01-16T01:12:22.840Z,0
2018-01-16T01:13:03.361Z,0
2018-01-16T01:13:43.914Z,0
2018-01-16T01:14:24.380Z,0
2018-01-16T01:15:05.045Z,0
2018-01-16T01:15:45.525Z,0
2018-01-16T01:16:26.103Z,0
2018-01-16T01:17:06.544Z,0
2018-01-16T01:17:47.078Z,0
2018-01-16T01:18:27.645Z,0
2018-01-16T01:19:08.136Z,0
2018-01-16T01:19:48.694Z,0
2018-01-16T01:20:29.226Z,0
2018-01-16T01:21:09.793Z,0
2018-01-16T01:21:50.350Z,0
2018-01-16T01:22:30.908Z,0
2018-01-16T01:23:11.476Z,0
2018-01-16T01:23:52.018Z,0
2018-01-16T01:24:32.557Z,0
2018-01-16T01:25:13.139Z,0
2018-01-16T01:25:53.662Z,0
2018-01-16T01:26:34.211Z,0
2018-01-16T01:27:14.739Z,0
2018-01-16T01:27:55.252Z,0
2018-01-16T01:28:35.723Z,0
2018-01-16T01:29:16.293Z,0
2018-01-16T01:29:56.819Z,0
2018-01-16T01:30:37.307Z,0
2018-01-16T01:31:17.887Z,0
2018-01-16T01:31:58.507Z,0
2018-01-16T01:32:39.027Z,0
2018-01-16T01:33:19.566Z,0
2018-01-16T01:34:00.125Z,0
2018-01-16T01:34:40.669Z,0
2018-01-16T01:35:21.226Z,0
2018-01-16T01:36:01.743Z,0
2018-01-16T01:36:42.289Z,0
2018-01-16T01:37:22.813Z,0
2018-01-16T01:38:03.356Z,0
2018-01-16T01:38:43.929Z,0
2018-01-16T01:39:24.464Z,0
2018-01-16T01:40:04.976Z,0
2018-01-16T01:40:45.514Z,0
2018-01-16T01:41:26.044Z,0
2018-01-16T01:42:06.556Z,0
2018-01-16T01:42:47.083Z,0
2018-01-16T01:43:27.629Z,0
2018-01-16T01:44:08.164Z,0
2018-01-16T01:44:48.745Z,0
2018-01-16T01:45:29.323Z,0
2018-01-16T01:46:09.821Z,0
2018-01-16T01:46:50.341Z,0
2018-01-16T01:47:30.854Z,0
2018-01-16T01:48:11.417Z,0
2018-01-16T01:48:52.039Z,0
2018-01-16T01:49:32.550Z,0
2018-01-16T01:50:13.115Z,0
2018-01-16T01:50:53.598Z,0
2018-01-16T01:51:34.133Z,0
2018-01-16T01:52:14.706Z,0
2018-01-16T01:52:55.197Z,0
2018-01-16T01:53:35.728Z,0
2018-01-16T01:54:16.243Z,0
2018-01-16T01:54:56.774Z,0
2018-01-16T01:55:37.301Z,0
2018-01-16T01:56:17.790Z,0
2018-01-16T01:56:58.397Z,0
2018-01-16T01:57:38.905Z,0
2018-01-16T01:58:19.482Z,0
2018-01-16T01:58:59.987Z,0
2018-01-16T01:59:40.549Z,0
2018-01-16T02:00:21.104Z,0
2018-01-16T02:01:01.636Z,0
2018-01-16T02:01:42.175Z,0
2018-01-16T02:02:22.863Z,0
2018-01-16T02:03:03.454Z,0
2018-01-16T02:03:44.004Z,0
2018-01-16T02:04:24.518Z,0
2018-01-16T02:05:05.120Z,0
2018-01-16T02:05:45.681Z,0
2018-01-16T02:06:26.153Z,0
2018-01-16T02:07:06.685Z,0
2018-01-16T02:07:47.243Z,0
2018-01-16T02:08:27.795Z,0
2018-01-16T02:09:08.334Z,0
2018-01-16T02:09:48.867Z,0
2018-01-16T02:10:29.405Z,0
2018-01-16T02:11:10.000Z,0
2018-01-16T02:11:50.553Z,0
2018-01-16T02:12:31.086Z,0
2018-01-16T02:13:11.652Z,0
2018-01-16T02:13:52.188Z,0
2018-01-16T02:14:32.707Z,0
2018-01-16T02:15:13.259Z,0
2018-01-16T02:15:53.779Z,0
2018-01-16T02:16:34.320Z,0
2018-01-16T02:17:14.893Z,0
2018-01-16T02:17:55.351Z,0
2018-01-16T02:18:35.883Z,0
2018-01-16T02:19:16.455Z,0
2018-01-16T02:19:56.965Z,0
2018-01-16T02:20:37.487Z,0
2018-01-16T02:21:18.093Z,0
2018-01-16T02:21:58.555Z,0
2018-01-16T02:22:39.138Z,0
2018-01-16T02:23:19.680Z,0
2018-01-16T02:24:01.101Z,0
2018-01-16T02:24:41.600Z,0
2018-01-16T02:25:22.156Z,0
2018-01-16T02:26:02.769Z,0
2018-01-16T02:26:43.291Z,0
2018-01-16T02:27:23.790Z,0
2018-01-16T02:28:04.337Z,0
2018-01-16T02:28:44.889Z,0
2018-01-16T02:29:25.362Z,0
2018-01-16T02:30:05.924Z,0
2018-01-16T02:30:46.480Z,0
2018-01-16T02:31:27.064Z,0
2018-01-16T02:32:07.591Z,0
2018-01-16T02:32:48.103Z,0
2018-01-16T02:33:29.367Z,0
2018-01-16T02:34:09.286Z,0
2018-01-16T02:34:49.775Z,0
2018-01-16T02:35:30.371Z,0
2018-01-16T02:36:10.907Z,0
2018-01-16T02:36:51.423Z,0
2018-01-16T02:37:31.963Z,0
2018-01-16T02:38:12.469Z,0
2018-01-16T02:38:53.022Z,0
2018-01-16T02:39:33.556Z,0
2018-01-16T02:40:14.144Z,0
2018-01-16T02:40:54.676Z,0
2018-01-16T02:41:35.207Z,0
2018-01-16T02:42:15.714Z,0
2018-01-16T02:42:56.258Z,0
2018-01-16T02:43:36.803Z,0
2018-01-16T02:44:17.400Z,0
2018-01-16T02:44:57.935Z,0
2018-01-16T02:45:38.461Z,0
2018-01-16T02:46:18.930Z,0
2018-01-16T02:46:59.536Z,0
2018-01-16T02:47:40.040Z,0
2018-01-16T02:48:20.589Z,0
2018-01-16T02:49:01.089Z,0
2018-01-16T02:49:41.672Z,0
2018-01-16T02:50:22.234Z,0
2018-01-16T02:51:02.789Z,0
2018-01-16T02:51:43.320Z,0
2018-01-16T02:52:23.868Z,0
2018-01-16T02:53:04.409Z,0
2018-01-16T02:53:44.916Z,0
2018-01-16T02:54:25.475Z,0
2018-01-16T02:55:05.974Z,0
2018-01-16T02:55:46.581Z,0
2018-01-16T02:56:27.081Z,0
2018-01-16T02:57:07.691Z,0
2018-01-16T02:57:48.177Z,0
2018-01-16T02:58:28.725Z,0
2018-01-16T02:59:09.266Z,0
2018-01-16T02:59:49.787Z,0
2018-01-16T03:00:30.307Z,0
2018-01-16T03:01:10.870Z,0
2018-01-16T03:01:51.355Z,0
2018-01-16T03:02:31.954Z,0
2018-01-16T03:03:12.452Z,0
2018-01-16T03:03:52.985Z,0
2018-01-16T03:04:33.547Z,0
2018-01-16T03:05:14.038Z,0
2018-01-16T03:05:54.593Z,0
2018-01-16T03:06:35.105Z,0
2018-01-16T03:07:15.635Z,0
2018-01-16T03:07:56.122Z,0
2018-01-16T03:08:36.737Z,0
2018-01-16T03:09:17.278Z,0
2018-01-16T03:09:57.840Z,0
2018-01-16T03:10:38.383Z,0
2018-01-16T03:11:18.944Z,0
2018-01-16T03:11:59.516Z,0
2018-01-16T03:12:40.058Z,0
2018-01-16T03:13:20.623Z,0
2018-01-16T03:14:01.165Z,0
2018-01-16T03:14:41.649Z,0
2018-01-16T03:15:22.235Z,0
2018-01-16T03:16:02.774Z,0
2018-01-16T03:16:43.340Z,0
2018-01-16T03:17:23.824Z,0
2018-01-16T03:18:04.300Z,0
2018-01-16T03:18:44.840Z,0
2018-01-16T03:19:25.373Z,0
2018-01-16T03:20:05.923Z,0
2018-01-16T03:20:46.517Z,0
2018-01-16T03:21:27.029Z,0
2018-01-16T03:22:07.588Z,0
2018-01-16T03:22:48.126Z,0
2018-01-16T03:23:28.671Z,0
2018-01-16T03:24:09.256Z,0
2018-01-16T03:24:49.797Z,0
2018-01-16T03:25:30.332Z,0
2018-01-16T03:26:10.874Z,0
2018-01-16T03:26:51.417Z,0
2018-01-16T03:27:31.934Z,0
2018-01-16T03:28:12.459Z,0
2018-01-16T03:28:53.040Z,0
2018-01-16T03:29:33.564Z,0
2018-01-16T03:30:14.131Z,0
2018-01-16T03:30:54.673Z,0
2018-01-16T03:31:35.182Z,0
2018-01-16T03:32:15.741Z,0
2018-01-16T03:32:56.314Z,0
2018-01-16T03:33:36.840Z,0
2018-01-16T03:34:17.351Z,0
2018-01-16T03:34:57.877Z,0
2018-01-16T03:35:39.371Z,0
2018-01-16T03:36:19.037Z,0
2018-01-16T03:36:59.546Z,0
2018-01-16T03:37:40.146Z,0
2018-01-16T03:38:20.636Z,0
2018-01-16T03:39:01.149Z,0
2018-01-16T03:39:41.690Z,0
2018-01-16T03:40:22.248Z,0
2018-01-16T03:41:02.794Z,0
2018-01-16T03:41:43.339Z,0
2018-01-16T03:42:23.938Z,0
2018-01-16T03:43:04.510Z,0
2018-01-16T03:43:45.033Z,0
2018-01-16T03:44:25.601Z,0
2018-01-16T03:45:06.150Z,0
2018-01-16T03:45:46.643Z,0
2018-01-16T03:46:27.175Z,0
2018-01-16T03:47:07.668Z,0
2018-01-16T03:47:48.186Z,0
2018-01-16T03:48:28.725Z,0
2018-01-16T03:49:09.310Z,0
2018-01-16T03:49:49.860Z,0
2018-01-16T03:50:30.442Z,0
2018-01-16T03:51:10.978Z,0
2018-01-16T03:51:51.480Z,0
2018-01-16T03:52:32.092Z,0
2018-01-16T03:53:12.653Z,0
2018-01-16T03:53:53.156Z,0
2018-01-16T03:54:33.682Z,0
2018-01-16T03:55:14.260Z,0
2018-01-16T03:55:54.798Z,0
2018-01-16T03:56:35.265Z,0
2018-01-16T03:57:15.834Z,0
2018-01-16T03:57:56.364Z,0
2018-01-16T03:58:36.889Z,0
2018-01-16T03:59:17.420Z,0
2018-01-16T03:59:57.953Z,0
2018-01-16T04:00:38.492Z,0
2018-01-16T04:01:18.985Z,0
2018-01-16T04:01:59.534Z,0
2018-01-16T04:02:40.093Z,0
2018-01-16T04:03:20.645Z,0
2018-01-16T04:04:01.168Z,0
2018-01-16T04:04:41.725Z,0
2018-01-16T04:05:22.271Z,0
2018-01-16T04:06:02.807Z,0
2018-01-16T04:06:43.397Z,0
2018-01-16T04:07:23.868Z,0
2018-01-16T04:08:04.385Z,0
2018-01-16T04:08:44.913Z,0
2018-01-16T04:09:25.477Z,0
2018-01-16T04:10:06.002Z,0
2018-01-16T04:10:46.499Z,0
2018-01-16T04:11:27.048Z,0
2018-01-16T04:12:07.597Z,0
2018-01-16T04:12:48.133Z,0
2018-01-16T04:13:28.697Z,0
2018-01-16T04:14:09.240Z,0
2018-01-16T04:14:49.727Z,0
2018-01-16T04:15:30.304Z,0
2018-01-16T04:16:10.850Z,0
2018-01-16T04:16:51.354Z,0
2018-01-16T04:17:31.883Z,0
2018-01-16T04:18:12.424Z,0
2018-01-16T04:18:52.934Z,0
2018-01-16T04:19:33.497Z,0
2018-01-16T04:20:13.998Z,0
2018-01-16T04:20:54.553Z,0
2018-01-16T04:21:35.053Z,0
2018-01-16T04:22:15.636Z,0
2018-01-16T04:22:56.107Z,0
2018-01-16T04:23:36.618Z,0
2018-01-16T04:24:17.188Z,0
2018-01-16T04:24:57.721Z,0
2018-01-16T04:25:38.387Z,0
2018-01-16T04:26:18.874Z,0
2018-01-16T04:26:59.389Z,0
2018-01-16T04:27:39.907Z,0
2018-01-16T04:28:20.466Z,0
2018-01-16T04:29:01.025Z,0
2018-01-16T04:29:41.581Z,0
2018-01-16T04:30:22.071Z,0
2018-01-16T04:31:02.642Z,0
2018-01-16T04:31:43.176Z,0
2018-01-16T04:34:11.943Z,0
2018-01-16T04:34:52.315Z,0
2018-01-16T04:35:32.946Z,0
2018-01-16T04:36:13.717Z,0
2018-01-16T04:36:54.265Z,0
2018-01-16T04:37:34.750Z,0
2018-01-16T04:38:15.332Z,0
2018-01-16T04:38:55.871Z,0
2018-01-16T04:39:36.379Z,0
2018-01-16T04:40:16.898Z,0
2018-01-16T04:40:57.481Z,0
2018-01-16T04:41:37.993Z,0
2018-01-16T04:42:18.507Z,0
2018-01-16T04:42:59.077Z,0
2018-01-16T04:43:39.636Z,0
2018-01-16T04:44:20.152Z,0
2018-01-16T04:45:00.738Z,0
2018-01-16T04:45:41.243Z,0
2018-01-16T04:46:21.816Z,0
2018-01-16T04:47:02.416Z,0
2018-01-16T04:47:42.978Z,0
2018-01-16T04:48:23.522Z,0
2018-01-16T04:49:04.111Z,0
2018-01-16T04:49:44.660Z,0
2018-01-16T04:50:25.167Z,0
2018-01-16T04:51:05.732Z,0
2018-01-16T04:51:46.255Z,0
2018-01-16T04:52:26.812Z,0
2018-01-16T04:53:07.347Z,0
2018-01-16T04:53:47.881Z,0
2018-01-16T04:54:28.449Z,0
2018-01-16T04:55:08.948Z,0
2018-01-16T04:55:49.553Z,0
2018-01-16T04:56:30.100Z,0
2018-01-16T04:57:10.599Z,0
2018-01-16T04:57:51.094Z,0
2018-01-16T04:58:31.755Z,0
2018-01-16T04:59:12.279Z,0
2018-01-16T04:59:52.839Z,0
2018-01-16T05:00:33.362Z,0
2018-01-16T05:01:13.899Z,0
2018-01-16T05:01:54.453Z,0
2018-01-16T05:02:34.978Z,0
2018-01-16T05:03:15.504Z,0
2018-01-16T05:03:56.063Z,0
2018-01-16T05:04:36.662Z,0
2018-01-16T05:05:17.140Z,0
2018-01-16T05:05:57.722Z,0
2018-01-16T05:06:38.253Z,0
2018-01-16T05:07:18.786Z,0
2018-01-16T05:07:59.304Z,0
2018-01-16T05:08:39.921Z,0
2018-01-16T05:09:20.441Z,0
2018-01-16T05:10:01.015Z,0
2018-01-16T05:10:41.584Z,0
2018-01-16T05:11:22.104Z,0
2018-01-16T05:12:02.642Z,0
2018-01-16T05:12:43.160Z,0
2018-01-16T05:13:23.681Z,0
2018-01-16T05:14:04.217Z,0
2018-01-16T05:14:44.733Z,0
2018-01-16T05:15:25.324Z,0
2018-01-16T05:16:05.838Z,0
2018-01-16T05:16:46.323Z,0
2018-01-16T05:17:26.892Z,0
2018-01-16T05:18:07.401Z,0
2018-01-16T05:18:47.969Z,0
2018-01-16T05:19:28.456Z,0
2018-01-16T05:20:08.977Z,0
2018-01-16T05:20:49.531Z,0
2018-01-16T05:21:30.097Z,0
2018-01-16T05:22:10.674Z,0
2018-01-16T05:22:51.221Z,0
2018-01-16T05:23:31.761Z,0
2018-01-16T05:24:12.259Z,0
2018-01-16T05:24:52.775Z,0
2018-01-16T05:25:33.310Z,0
2018-01-16T05:26:13.753Z,0
2018-01-16T05:26:54.312Z,0
2018-01-16T05:27:34.876Z,0
2018-01-16T05:28:15.400Z,0
2018-01-16T05:28:55.932Z,0
2018-01-16T05:29:36.424Z,0
2018-01-16T05:30:16.997Z,0
2018-01-16T05:30:57.494Z,0
2018-01-16T05:31:37.991Z,0
2018-01-16T05:32:18.536Z,0
2018-01-16T05:32:59.092Z,0
2018-01-16T05:33:39.624Z,0
2018-01-16T05:34:20.071Z,0
2018-01-16T05:35:00.634Z,0
2018-01-16T05:35:41.214Z,0
2018-01-16T05:36:21.822Z,0
2018-01-16T05:37:02.339Z,0
2018-01-16T05:37:42.891Z,0
2018-01-16T05:38:23.510Z,0
2018-01-16T05:39:04.025Z,0
2018-01-16T05:39:44.565Z,0
2018-01-16T05:40:25.099Z,0
2018-01-16T05:41:05.719Z,0
2018-01-16T05:41:46.174Z,0
2018-01-16T05:42:26.680Z,0
2018-01-16T05:43:07.209Z,0
2018-01-16T05:43:47.729Z,0
2018-01-16T05:44:28.258Z,0
2018-01-16T05:45:08.774Z,0
2018-01-16T05:45:49.287Z,0
2018-01-16T05:46:29.841Z,0
2018-01-16T05:47:10.403Z,0
2018-01-16T05:47:50.934Z,0
2018-01-16T05:48:31.459Z,0
2018-01-16T05:49:12.000Z,0
2018-01-16T05:49:52.532Z,0
2018-01-16T05:50:33.095Z,0
2018-01-16T05:51:13.801Z,0
2018-01-16T05:51:54.292Z,0
2018-01-16T05:52:34.851Z,0
2018-01-16T05:53:15.364Z,0
2018-01-16T05:53:55.885Z,0
2018-01-16T05:54:36.448Z,0
2018-01-16T05:55:17.046Z,0
2018-01-16T05:55:57.611Z,0
2018-01-16T05:56:38.101Z,0
2018-01-16T05:57:18.668Z,0
2018-01-16T05:57:59.216Z,0
2018-01-16T05:58:39.830Z,0
2018-01-16T06:00:58.488Z,0
2018-01-16T06:01:39.026Z,0
2018-01-16T06:02:19.750Z,0
2018-01-16T06:03:00.081Z,0
2018-01-16T06:03:40.692Z,0
2018-01-16T06:04:21.248Z,0
2018-01-16T06:05:01.789Z,0
2018-01-16T06:05:42.348Z,0
2018-01-16T06:06:22.876Z,0
2018-01-16T06:07:03.419Z,0
2018-01-16T06:07:43.936Z,0
2018-01-16T06:08:24.447Z,0
2018-01-16T06:09:04.965Z,0
2018-01-16T06:09:45.560Z,0
2018-01-16T06:10:26.113Z,0
2018-01-16T06:11:06.653Z,0
2018-01-16T06:11:47.194Z,0
2018-01-16T06:12:27.804Z,0
2018-01-16T06:13:08.352Z,0
2018-01-16T06:13:48.958Z,0
2018-01-16T06:14:29.595Z,0
2018-01-16T06:15:10.092Z,0
2018-01-16T06:15:50.601Z,0
2018-01-16T06:16:31.218Z,0
2018-01-16T06:17:11.760Z,0
2018-01-16T06:17:52.374Z,0
2018-01-16T06:18:32.867Z,0
2018-01-16T06:19:13.411Z,0
2018-01-16T06:19:53.930Z,0
2018-01-16T06:20:34.491Z,0
2018-01-16T06:21:15.126Z,0
2018-01-16T06:21:55.699Z,0
2018-01-16T06:22:36.194Z,0
2018-01-16T06:23:16.753Z,0
2018-01-16T06:23:57.356Z,0
2018-01-16T06:24:37.935Z,0
2018-01-16T06:25:18.480Z,0
2018-01-16T06:25:59.033Z,0
2018-01-16T06:26:39.585Z,0
2018-01-16T06:27:20.114Z,0
2018-01-16T06:28:00.645Z,0
2018-01-16T06:28:41.219Z,0
2018-01-16T06:29:21.794Z,0
2018-01-16T06:30:02.307Z,0
2018-01-16T06:30:42.823Z,0
2018-01-16T06:31:23.330Z,0
2018-01-16T06:32:03.897Z,0
2018-01-16T06:32:44.394Z,0
2018-01-16T06:33:24.968Z,0
2018-01-16T06:34:05.523Z,0
2018-01-16T06:34:46.063Z,0
2018-01-16T06:35:26.588Z,0
2018-01-16T06:36:07.224Z,0
2018-01-16T06:36:47.787Z,0
2018-01-16T06:37:28.350Z,0
2018-01-16T06:38:08.831Z,0
2018-01-16T06:38:49.336Z,0
2018-01-16T06:39:29.916Z,0
2018-01-16T06:40:10.530Z,0
2018-01-16T06:40:51.072Z,0
2018-01-16T06:41:31.567Z,0
2018-01-16T06:42:12.133Z,0
2018-01-16T06:42:52.707Z,4
2018-01-16T06:43:33.270Z,4
2018-01-16T06:44:13.797Z,4
2018-01-16T06:44:54.339Z,4
2018-01-16T06:45:34.844Z,4
2018-01-16T06:46:15.433Z,4
2018-01-16T06:46:56.470Z,4
2018-01-16T06:47:37.052Z,4
2018-01-16T06:48:17.645Z,4
2018-01-16T06:48:58.214Z,4
2018-01-16T06:49:38.750Z,4
2018-01-16T06:50:19.287Z,4
2018-01-16T06:50:59.835Z,0
2018-01-16T06:51:40.437Z,0
2018-01-16T06:52:20.899Z,4
2018-01-16T06:53:01.492Z,4
2018-01-16T06:53:42.019Z,4
2018-01-16T06:54:22.596Z,4
2018-01-16T06:55:03.117Z,4
2018-01-16T06:55:43.633Z,4
2018-01-16T06:56:24.162Z,4
2018-01-16T06:57:04.734Z,4
2018-01-16T06:57:45.286Z,4
2018-01-16T06:58:25.810Z,8
2018-01-16T06:59:06.367Z,4
2018-01-16T06:59:46.840Z,4
2018-01-16T07:00:27.394Z,8
2018-01-16T07:01:07.964Z,12
2018-01-16T07:01:48.531Z,8
2018-01-16T07:02:29.242Z,12
2018-01-16T07:03:09.796Z,12
2018-01-16T07:03:50.367Z,16
2018-01-16T07:04:30.912Z,16
2018-01-16T07:05:11.460Z,16
2018-01-16T07:05:52.057Z,20
2018-01-16T07:06:33.332Z,28
2018-01-16T07:07:13.952Z,44
2018-01-16T07:07:54.500Z,52
2018-01-16T07:08:35.012Z,56
2018-01-16T07:09:15.601Z,52
2018-01-16T07:09:56.219Z,44
2018-01-16T07:10:36.770Z,36
2018-01-16T07:11:17.308Z,32
2018-01-16T07:11:57.819Z,28
2018-01-16T07:12:38.390Z,36
2018-01-16T07:13:18.901Z,32
2018-01-16T07:13:59.461Z,24
2018-01-16T07:14:40.007Z,24
2018-01-16T07:15:20.575Z,32
2018-01-16T07:16:01.128Z,28
2018-01-16T07:16:41.692Z,36
2018-01-16T07:17:22.586Z,36
2018-01-16T07:18:03.124Z,32
2018-01-16T07:18:43.715Z,24
2018-01-16T07:19:24.292Z,24
2018-01-16T07:20:04.890Z,28
2018-01-16T07:20:45.314Z,36
2018-01-16T07:21:25.863Z,36
2018-01-16T07:22:06.419Z,40
2018-01-16T07:22:46.972Z,40
2018-01-16T07:23:27.510Z,44
2018-01-16T07:24:08.027Z,40
2018-01-16T07:24:48.572Z,44
2018-01-16T07:25:29.156Z,44
2018-01-16T07:26:09.689Z,48
2018-01-16T07:26:50.194Z,48
2018-01-16T07:27:30.740Z,56
2018-01-16T07:28:11.303Z,60
2018-01-16T07:28:51.862Z,60
2018-01-16T07:29:32.413Z,56
2018-01-16T07:30:12.940Z,64
2018-01-16T07:30:53.489Z,56
2018-01-16T07:31:33.993Z,52
2018-01-16T07:32:14.565Z,52
2018-01-16T07:32:55.063Z,52
2018-01-16T07:33:35.561Z,52
2018-01-16T07:34:16.132Z,64
2018-01-16T07:34:56.639Z,60
2018-01-16T07:35:37.152Z,68
2018-01-16T07:36:17.715Z,72
2018-01-16T07:36:58.234Z,76
2018-01-16T07:37:38.709Z,84
2018-01-16T07:38:19.253Z,100
2018-01-16T07:38:59.818Z,108
2018-01-16T07:39:40.309Z,96
2018-01-16T07:40:20.871Z,100
2018-01-16T07:41:01.353Z,96
2018-01-16T07:41:41.910Z,116
2018-01-16T07:42:22.455Z,144
2018-01-16T07:43:02.975Z,180
2018-01-16T07:43:43.516Z,192
2018-01-16T07:44:24.056Z,192
2018-01-16T07:45:04.555Z,204
2018-01-16T07:45:45.134Z,196
2018-01-16T07:46:25.673Z,172
2018-01-16T07:47:06.679Z,172
2018-01-16T07:47:47.241Z,192
2018-01-16T07:48:27.796Z,228
2018-01-16T07:49:08.757Z,240
2018-01-16T07:49:49.334Z,240
2018-01-16T07:50:29.862Z,252
2018-01-16T07:51:10.410Z,276
2018-01-16T07:51:50.943Z,296
2018-01-16T07:52:31.517Z,336
2018-01-16T07:53:12.095Z,348
2018-01-16T07:53:52.617Z,316
2018-01-16T07:54:33.143Z,304
2018-01-16T07:55:13.653Z,268
2018-01-16T07:55:54.181Z,236
2018-01-16T07:56:34.745Z,216
2018-01-16T07:57:15.331Z,224
2018-01-16T07:57:55.818Z,216
2018-01-16T07:58:36.353Z,192
2018-01-16T07:59:16.879Z,176
2018-01-16T07:59:57.429Z,132
2018-01-16T08:02:15.838Z,260
2018-01-16T08:02:56.376Z,288
2018-01-16T08:03:36.936Z,324
2018-01-16T08:04:17.499Z,336
2018-01-16T08:04:57.994Z,340
2018-01-16T08:05:38.544Z,376
2018-01-16T08:06:19.091Z,364
2018-01-16T08:06:59.622Z,312
2018-01-16T08:07:40.127Z,312
2018-01-16T08:08:20.683Z,352
2018-01-16T08:09:01.209Z,380
2018-01-16T08:09:41.783Z,380
2018-01-16T08:10:22.293Z,400
2018-01-16T08:11:02.816Z,408
2018-01-16T08:11:43.361Z,400
2018-01-16T08:12:23.948Z,304
2018-01-16T08:13:04.432Z,236
2018-01-16T08:13:44.969Z,216
2018-01-16T08:14:25.511Z,224
2018-01-16T08:15:06.148Z,224
2018-01-16T08:15:46.691Z,252
2018-01-16T08:16:27.187Z,300
2018-01-16T08:17:07.676Z,292
2018-01-16T08:17:48.306Z,244
2018-01-16T08:18:28.898Z,240
2018-01-16T08:19:09.518Z,320
2018-01-16T08:19:50.007Z,428
2018-01-16T08:20:30.498Z,508
2018-01-16T08:21:11.052Z,544
2018-01-16T08:21:51.638Z,592
2018-01-16T08:22:32.138Z,604
2018-01-16T08:23:12.676Z,724
2018-01-16T08:23:53.234Z,860
2018-01-16T08:24:33.765Z,944
2018-01-16T08:25:14.303Z,960
2018-01-16T08:25:54.890Z,1076
2018-01-16T08:26:35.393Z,1116
2018-01-16T08:27:15.944Z,1100
2018-01-16T08:27:56.447Z,972
2018-01-16T08:28:37.017Z,936
2018-01-16T08:29:17.596Z,964
2018-01-16T08:29:58.254Z,940
2018-01-16T08:30:38.847Z,908
2018-01-16T08:31:19.405Z,888
2018-01-16T08:31:59.954Z,852
2018-01-16T08:32:40.513Z,840
2018-01-16T08:33:21.609Z,876
2018-01-16T08:34:03.393Z,768
2018-01-16T08:34:43.950Z,652
2018-01-16T08:35:24.483Z,560
2018-01-16T08:36:05.011Z,496
2018-01-16T08:36:45.609Z,464
2018-01-16T08:37:26.167Z,408
2018-01-16T08:38:06.805Z,396
2018-01-16T08:38:47.355Z,416
2018-01-16T08:39:27.875Z,472
2018-01-16T08:40:08.381Z,584
2018-01-16T08:40:48.880Z,704
2018-01-16T08:41:29.447Z,832
2018-01-16T08:42:09.959Z,892
2018-01-16T08:42:50.496Z,992
2018-01-16T08:43:31.080Z,1016
2018-01-16T08:44:11.582Z,952
2018-01-16T08:44:52.178Z,1048
2018-01-16T08:45:32.764Z,1104
2018-01-16T08:46:13.311Z,1028
2018-01-16T08:46:53.811Z,880
2018-01-16T08:47:34.341Z,652
2018-01-16T08:48:14.906Z,472
2018-01-16T08:48:55.483Z,424
2018-01-16T08:49:36.007Z,392
2018-01-16T08:50:16.552Z,404
2018-01-16T08:50:57.135Z,376
2018-01-16T08:51:37.791Z,484
2018-01-16T08:52:18.379Z,556
2018-01-16T08:52:59.196Z,636
2018-01-16T08:53:39.639Z,684
2018-01-16T08:54:20.219Z,692
2018-01-16T08:55:00.760Z,708
2018-01-16T08:55:41.328Z,692
2018-01-16T08:56:22.050Z,684
2018-01-16T08:57:02.575Z,772
2018-01-16T08:57:43.068Z,948
2018-01-16T08:58:23.667Z,1248
2018-01-16T08:59:04.239Z,1304
2018-01-16T08:59:44.792Z,1304
2018-01-16T09:00:25.301Z,1440
2018-01-16T09:01:05.897Z,1520
2018-01-16T09:01:46.445Z,1716
2018-01-16T09:02:27.006Z,1624
2018-01-16T09:03:07.606Z,1624
2018-01-16T09:03:48.648Z,1504
2018-01-16T09:04:29.363Z,1428
2018-01-16T09:05:09.835Z,1568
2018-01-16T09:05:50.399Z,1848
2018-01-16T09:06:31.432Z,1928
2018-01-16T09:07:12.085Z,1844
2018-01-16T09:07:53.027Z,1888
2018-01-16T09:08:33.852Z,1564
2018-01-16T09:09:14.818Z,1472
2018-01-16T09:09:55.745Z,1600
2018-01-16T09:10:36.897Z,1460
2018-01-16T09:11:17.411Z,1356
2018-01-16T09:11:57.897Z,1372
2018-01-16T09:12:38.762Z,1396
2018-01-16T09:13:19.335Z,1272
2018-01-16T09:14:00.315Z,1296
2018-01-16T09:14:40.921Z,1284
2018-01-16T09:15:21.514Z,1128
2018-01-16T09:16:02.010Z,972
2018-01-16T09:16:42.606Z,848
2018-01-16T09:17:23.246Z,832
2018-01-16T09:18:03.856Z,792
2018-01-16T09:18:44.657Z,680
2018-01-16T09:19:25.127Z,576
2018-01-16T09:20:06.542Z,540
2018-01-16T09:20:47.323Z,636
2018-01-16T09:21:27.995Z,840
2018-01-16T09:22:08.539Z,904
2018-01-16T09:22:49.255Z,828
2018-01-16T09:23:29.798Z,792
2018-01-16T09:24:10.454Z,736
2018-01-16T09:24:50.954Z,612
2018-01-16T09:25:31.524Z,568
2018-01-16T09:26:12.026Z,552
2018-01-16T09:26:52.546Z,664
2018-01-16T09:27:33.101Z,920
2018-01-16T09:28:13.676Z,1040
2018-01-16T09:28:54.290Z,1100
2018-01-16T09:29:34.841Z,1104
2018-01-16T09:30:15.490Z,1068
2018-01-16T09:30:56.349Z,1076
2018-01-16T09:31:37.023Z,920
2018-01-16T09:32:17.523Z,908
2018-01-16T09:32:58.082Z,1036
2018-01-16T09:33:38.639Z,1116
2018-01-16T09:34:19.159Z,960
2018-01-16T09:34:59.676Z,1028
2018-01-16T09:35:40.213Z,1092
2018-01-16T09:36:20.769Z,1176
2018-01-16T09:37:01.333Z,1016
2018-01-16T09:37:41.864Z,944
2018-01-16T09:38:22.437Z,884
2018-01-16T09:39:02.867Z,792
2018-01-16T09:39:43.440Z,752
2018-01-16T09:40:23.949Z,792
2018-01-16T09:41:04.561Z,768
2018-01-16T09:41:45.084Z,800
2018-01-16T09:42:25.548Z,796
2018-01-16T09:43:06.144Z,716
2018-01-16T09:43:46.656Z,680
2018-01-16T09:44:27.249Z,832
2018-01-16T09:45:07.810Z,968
2018-01-16T09:45:48.262Z,920
2018-01-16T09:46:28.812Z,996
2018-01-16T09:47:09.365Z,988
2018-01-16T09:47:49.918Z,900
2018-01-16T09:48:30.462Z,888
2018-01-16T09:49:11.073Z,948
2018-01-16T09:49:51.649Z,848
2018-01-16T09:50:32.199Z,864
2018-01-16T09:51:12.688Z,896
2018-01-16T09:51:53.204Z,936
2018-01-16T09:52:33.777Z,1148